Time;durP1;ratioP1;P1;durP2;ratioP2;P2;SDS_P1;SDS_P2;PMS_P1;PMS_P2;Temp;Humidity;BMP_temperature;BMP_pressure;BME280_temperature;BME280_humidity;BME280_pressure;Samples;Min_cycle;Max_cycle;Signal;HPM_P1;HPM_P2
2022/12/10 00:01:42;;;;;;;29.67;18.35;;;1.90;99.90;;;;;;4966821;28;20517;-48
2022/12/10 00:04:09;;;;;;;27.85;17.70;;;1.90;99.90;;;;;;4961618;28;20079;-49
2022/12/10 00:06:36;;;;;;;29.08;18.13;;;1.90;99.90;;;;;;4933722;29;20039;-49
2022/12/10 00:09:04;;;;;;;29.95;18.67;;;1.90;99.90;;;;;;4935159;29;20115;-45
2022/12/10 00:11:29;;;;;;;31.90;18.15;;;1.90;99.90;;;;;;4934708;29;20419;-45
2022/12/10 00:13:55;;;;;;;33.17;18.48;;;1.80;99.90;;;;;;4946605;28;20028;-46
2022/12/10 00:16:23;;;;;;;28.95;18.25;;;1.80;99.90;;;;;;4949226;28;20035;-49
2022/12/10 00:18:50;;;;;;;27.85;18.83;;;1.70;99.90;;;;;;4949121;29;20059;-46
2022/12/10 00:21:23;;;;;;;33.53;18.70;;;1.70;99.90;;;;;;4950254;28;20039;-46
2022/12/10 00:23:49;;;;;;;34.03;19.75;;;1.70;99.90;;;;;;4949963;29;20167;-45
2022/12/10 00:26:17;;;;;;;31.85;18.35;;;1.70;99.90;;;;;;4951184;28;20063;-47
2022/12/10 00:28:44;;;;;;;31.30;18.45;;;1.80;99.90;;;;;;4936189;29;20027;-46
2022/12/10 00:31:19;;;;;;;31.90;19.05;;;1.80;99.90;;;;;;4951041;28;20460;-47
2022/12/10 00:33:46;;;;;;;32.15;19.30;;;1.90;99.90;;;;;;4935671;29;20517;-46
2022/12/10 00:36:17;;;;;;;32.13;19.70;;;1.90;99.90;;;;;;4952038;28;20150;-46
2022/12/10 00:38:43;;;;;;;33.28;19.50;;;1.90;99.90;;;;;;4939660;29;20083;-47
2022/12/10 00:41:10;;;;;;;33.38;18.95;;;1.90;99.90;;;;;;4956510;28;20036;-48
2022/12/10 00:43:36;;;;;;;31.17;18.63;;;1.90;99.90;;;;;;4955352;29;20032;-47
2022/12/10 00:46:02;;;;;;;31.48;18.30;;;1.80;99.90;;;;;;4941284;29;20082;-46
2022/12/10 00:48:28;;;;;;;37.47;21.00;;;1.70;99.90;;;;;;4953398;28;20123;-47
2022/12/10 00:50:59;;;;;;;29.85;19.55;;;1.80;99.90;;;;;;4953045;29;20019;-45
2022/12/10 00:53:26;;;;;;;31.75;19.13;;;1.70;99.90;;;;;;4936869;29;20150;-45
2022/12/10 00:55:52;;;;;;;31.80;17.88;;;1.70;99.90;;;;;;4937832;29;20039;-45
2022/12/10 00:58:18;;;;;;;32.15;19.30;;;1.70;99.90;;;;;;4937161;29;20039;-44
2022/12/10 01:00:44;;;;;;;30.92;18.30;;;1.70;99.90;;;;;;4935659;29;20396;-51
2022/12/10 01:03:09;;;;;;;30.85;18.85;;;1.70;99.90;;;;;;4935611;29;20036;-48
2022/12/10 01:05:35;;;;;;;28.67;18.38;;;1.70;99.90;;;;;;4937741;29;20067;-51
2022/12/10 01:08:00;;;;;;;28.77;16.95;;;1.70;99.90;;;;;;4968545;28;20130;-45
2022/12/10 01:10:26;;;;;;;32.45;17.50;;;1.80;99.90;;;;;;4936892;29;20118;-46
2022/12/10 01:12:51;;;;;;;35.30;19.98;;;1.80;99.90;;;;;;4933184;29;20503;-51
2022/12/10 01:15:17;;;;;;;30.15;17.83;;;1.80;99.90;;;;;;4949941;28;20082;-43
2022/12/10 01:17:42;;;;;;;26.42;17.15;;;1.70;99.90;;;;;;4935068;29;20032;-49
2022/12/10 01:20:08;;;;;;;31.85;18.23;;;1.70;99.90;;;;;;4934978;29;20053;-46
2022/12/10 01:22:34;;;;;;;28.05;17.08;;;1.70;99.90;;;;;;4933933;29;20070;-51
2022/12/10 01:24:59;;;;;;;28.80;17.58;;;1.70;99.90;;;;;;4934585;29;20032;-46
2022/12/10 01:27:26;;;;;;;29.60;17.00;;;1.60;99.90;;;;;;4934368;29;20393;-47
2022/12/10 01:29:51;;;;;;;29.80;18.63;;;1.60;99.90;;;;;;4934617;29;20023;-47
2022/12/10 01:32:17;;;;;;;28.15;17.00;;;1.50;99.90;;;;;;4933858;29;20384;-46
2022/12/10 01:34:42;;;;;;;31.60;17.40;;;1.60;99.90;;;;;;4934299;29;20032;-46
2022/12/10 01:37:08;;;;;;;26.75;16.90;;;1.60;99.90;;;;;;4934488;29;20075;-49
2022/12/10 01:39:33;;;;;;;26.25;17.05;;;1.60;99.90;;;;;;4934542;29;20453;-47
2022/12/10 01:42:00;;;;;;;32.42;17.38;;;1.70;99.90;;;;;;4948396;29;20480;-50
2022/12/10 01:44:25;;;;;;;24.70;16.02;;;1.70;99.90;;;;;;4934445;29;20076;-46
2022/12/10 01:46:54;;;;;;;28.30;16.80;;;1.60;99.90;;;;;;4935079;29;20051;-45
2022/12/10 01:49:24;;;;;;;27.25;15.75;;;1.70;99.90;;;;;;4934259;29;20024;-52
2022/12/10 01:51:54;;;;;;;23.48;15.20;;;1.70;99.90;;;;;;4934495;29;20510;-48
2022/12/10 01:54:24;;;;;;;23.25;15.95;;;1.70;99.90;;;;;;4933723;29;20075;-47
2022/12/10 01:57:01;;;;;;;24.90;15.57;;;1.80;99.90;;;;;;4937019;29;20110;-49
2022/12/10 01:59:29;;;;;;;25.20;15.95;;;1.90;99.90;;;;;;4939421;29;20451;-46
2022/12/10 02:02:13;;;;;;;25.02;14.57;;;1.90;99.90;;;;;;4952660;29;20027;-48
2022/12/10 02:04:55;;;;;;;23.40;14.38;;;2.00;99.90;;;;;;4935579;29;20020;-51
2022/12/10 02:07:39;;;;;;;22.35;13.40;;;1.90;99.90;;;;;;4936967;29;20019;-49
2022/12/10 02:10:36;;;;;;;22.15;14.23;;;1.80;99.90;;;;;;4938224;29;20034;-53
2022/12/10 02:13:19;;;;;;;23.65;13.82;;;1.70;99.90;;;;;;4933188;29;20032;-46
2022/12/10 02:16:11;;;;;;;23.73;14.35;;;1.60;99.90;;;;;;4937916;29;20028;-48
2022/12/10 02:18:44;;;;;;;21.08;13.20;;;1.60;99.90;;;;;;4935468;29;20074;-51
2022/12/10 02:21:19;;;;;;;21.95;13.60;;;1.70;99.90;;;;;;4937914;29;20039;-50
2022/12/10 02:23:57;;;;;;;28.58;14.48;;;1.60;99.90;;;;;;4937247;29;20036;-48
2022/12/10 02:26:44;;;;;;;23.40;14.23;;;1.50;99.90;;;;;;4937751;29;20403;-48
2022/12/10 02:29:15;;;;;;;21.38;13.93;;;1.60;99.90;;;;;;4937913;29;20024;-46
2022/12/10 02:31:46;;;;;;;23.23;14.70;;;1.60;99.90;;;;;;4937956;29;20083;-47
2022/12/10 02:34:13;;;;;;;19.48;12.30;;;1.60;99.90;;;;;;4937214;29;20034;-54
2022/12/10 02:36:42;;;;;;;22.63;13.88;;;1.60;99.90;;;;;;4937700;29;20032;-47
2022/12/10 02:39:13;;;;;;;23.73;14.45;;;1.70;99.90;;;;;;4937481;29;20031;-48
2022/12/10 02:41:45;;;;;;;23.30;13.75;;;1.70;99.90;;;;;;4952170;28;20039;-50
2022/12/10 02:44:12;;;;;;;25.45;14.82;;;1.80;99.90;;;;;;4937036;29;20114;-53
2022/12/10 02:46:40;;;;;;;19.23;12.77;;;1.80;99.90;;;;;;4937694;29;20055;-49
2022/12/10 02:49:08;;;;;;;22.13;13.18;;;1.80;99.90;;;;;;4937442;29;20024;-51
2022/12/10 02:51:33;;;;;;;24.23;13.50;;;1.90;99.90;;;;;;4937650;29;20079;-48
2022/12/10 02:54:05;;;;;;;20.88;14.02;;;1.90;99.90;;;;;;4936531;29;20047;-49
2022/12/10 02:56:41;;;;;;;22.45;13.02;;;1.90;99.90;;;;;;4937040;29;20141;-47
2022/12/10 02:59:15;;;;;;;23.20;13.38;;;1.90;99.90;;;;;;4937358;29;20114;-51
2022/12/10 03:02:05;;;;;;;20.77;12.98;;;1.90;99.90;;;;;;4937043;29;20024;-48
2022/12/10 03:04:53;;;;;;;20.77;13.90;;;1.90;99.90;;;;;;4937045;29;20119;-47
2022/12/10 03:07:34;;;;;;;20.75;13.55;;;2.00;99.90;;;;;;4951731;29;20027;-48
2022/12/10 03:10:32;;;;;;;19.55;12.90;;;2.00;99.90;;;;;;4937078;29;20102;-44
2022/12/10 03:13:07;;;;;;;18.67;12.80;;;2.00;99.90;;;;;;4932962;29;20054;-49
2022/12/10 03:15:35;;;;;;;23.05;13.75;;;2.10;99.90;;;;;;4936872;29;20039;-48
2022/12/10 03:18:03;;;;;;;20.52;13.85;;;2.10;99.90;;;;;;4936731;29;20028;-47
2022/12/10 03:20:32;;;;;;;22.20;14.07;;;2.10;99.90;;;;;;4936685;29;20492;-48
2022/12/10 03:22:59;;;;;;;21.27;13.68;;;2.20;99.90;;;;;;4936048;29;20123;-48
2022/12/10 03:25:27;;;;;;;16.40;11.95;;;2.20;99.90;;;;;;4937014;29;20395;-47
2022/12/10 03:27:55;;;;;;;19.02;11.73;;;2.20;99.90;;;;;;4936891;29;20020;-48
2022/12/10 03:30:22;;;;;;;21.67;13.77;;;2.20;99.90;;;;;;4936607;29;20507;-49
2022/12/10 03:32:49;;;;;;;18.30;12.32;;;2.20;99.90;;;;;;4935995;29;20087;-47
2022/12/10 03:35:16;;;;;;;20.33;13.43;;;2.10;99.90;;;;;;4936481;29;20119;-50
2022/12/10 03:37:42;;;;;;;17.00;11.73;;;2.00;99.90;;;;;;4936484;29;20547;-46
2022/12/10 03:40:10;;;;;;;19.73;12.68;;;1.90;99.90;;;;;;4936487;29;20110;-48
2022/12/10 03:42:36;;;;;;;18.77;11.98;;;1.90;99.90;;;;;;4935575;29;20038;-50
2022/12/10 03:45:03;;;;;;;21.70;12.98;;;1.90;99.90;;;;;;4936367;29;20039;-47
2022/12/10 03:47:29;;;;;;;21.58;13.10;;;1.90;99.90;;;;;;4936342;29;20020;-51
2022/12/10 03:49:55;;;;;;;19.75;13.15;;;1.90;99.90;;;;;;4951116;29;20030;-46
2022/12/10 03:52:21;;;;;;;19.10;12.88;;;1.90;99.90;;;;;;4935620;29;20036;-47
2022/12/10 03:54:46;;;;;;;23.30;14.05;;;1.80;99.90;;;;;;4936015;29;20050;-52
2022/12/10 03:57:12;;;;;;;20.85;13.80;;;1.80;99.90;;;;;;4950912;28;20028;-47
2022/12/10 03:59:37;;;;;;;22.20;14.05;;;1.90;99.90;;;;;;4936535;29;20423;-52
2022/12/10 04:02:03;;;;;;;21.75;13.30;;;1.90;99.90;;;;;;4935370;29;20066;-48
2022/12/10 04:04:29;;;;;;;23.80;14.00;;;1.90;99.90;;;;;;4935988;29;20429;-48
2022/12/10 04:06:54;;;;;;;20.58;14.05;;;1.90;99.90;;;;;;4935863;29;20032;-49
2022/12/10 04:09:20;;;;;;;21.30;13.32;;;1.80;99.90;;;;;;4936211;29;20597;-49
2022/12/10 04:11:46;;;;;;;20.25;13.18;;;1.70;99.90;;;;;;4935699;29;20102;-46
2022/12/10 04:16:57;;;;;;;22.73;13.40;;;1.60;99.90;;;;;;4935984;29;20046;-49
2022/12/10 04:19:22;;;;;;;21.98;12.70;;;1.60;99.90;;;;;;4936408;29;20031;-45
2022/12/10 04:27:31;;;;;;;20.63;12.48;;;1.30;99.90;;;;;;4937485;29;20097;-48
2022/12/10 04:29:58;;;;;;;17.17;11.00;;;1.30;99.90;;;;;;4936595;29;20051;-47
2022/12/10 04:32:26;;;;;;;19.77;11.68;;;1.30;99.90;;;;;;4934958;29;20131;-48
2022/12/10 04:34:52;;;;;;;17.15;11.20;;;1.30;99.90;;;;;;4935571;29;20399;-46
2022/12/10 04:37:18;;;;;;;18.80;12.18;;;1.30;99.90;;;;;;4935471;29;20110;-45
2022/12/10 04:39:44;;;;;;;17.67;11.57;;;1.30;99.90;;;;;;4935639;29;20038;-49
2022/12/10 04:42:10;;;;;;;17.40;11.23;;;1.30;99.90;;;;;;4934630;29;20028;-47
2022/12/10 04:44:36;;;;;;;16.52;11.23;;;1.30;99.90;;;;;;4935262;29;20035;-50
2022/12/10 04:47:04;;;;;;;17.05;11.52;;;1.30;99.90;;;;;;4935120;29;20417;-45
2022/12/10 04:49:29;;;;;;;17.52;11.35;;;1.30;99.90;;;;;;4935299;29;20027;-46
2022/12/10 04:51:55;;;;;;;20.48;12.13;;;1.30;99.90;;;;;;4934954;29;20040;-51
2022/12/10 04:54:21;;;;;;;18.50;11.65;;;1.30;99.90;;;;;;4934960;29;20071;-48
2022/12/10 04:56:46;;;;;;;18.40;10.95;;;1.30;99.90;;;;;;4934978;29;20120;-48
2022/12/10 04:59:12;;;;;;;19.65;11.88;;;1.30;99.90;;;;;;4934989;29;20039;-48
2022/12/10 05:01:38;;;;;;;17.67;11.05;;;1.30;99.90;;;;;;4935180;29;20115;-49
2022/12/10 05:04:06;;;;;;;17.13;11.18;;;1.20;99.90;;;;;;4933772;29;20108;-48
2022/12/10 05:06:32;;;;;;;18.35;11.13;;;1.30;99.90;;;;;;4934897;29;20427;-46
2022/12/10 05:08:58;;;;;;;18.02;12.02;;;1.30;99.90;;;;;;4934830;29;20038;-50
2022/12/10 05:11:26;;;;;;;18.45;11.18;;;1.40;99.90;;;;;;4934762;29;20107;-48
2022/12/10 05:13:52;;;;;;;17.55;11.10;;;1.40;99.90;;;;;;4932653;29;20103;-50
2022/12/10 05:16:20;;;;;;;16.55;11.95;;;1.50;99.90;;;;;;4934536;29;20032;-51
2022/12/10 05:18:45;;;;;;;17.50;11.43;;;1.50;99.90;;;;;;4935278;29;20491;-44
2022/12/10 05:21:13;;;;;;;20.30;12.05;;;1.60;99.90;;;;;;4934709;29;20081;-49
2022/12/10 05:23:45;;;;;;;16.95;11.25;;;1.80;99.90;;;;;;4933821;29;20041;-51
2022/12/10 05:26:20;;;;;;;23.85;11.82;;;1.60;99.90;;;;;;4934761;29;20038;-47
2022/12/10 05:28:54;;;;;;;17.17;11.88;;;1.60;99.90;;;;;;4934508;29;20059;-49
2022/12/10 05:31:28;;;;;;;16.88;11.10;;;1.50;99.90;;;;;;4934432;29;20090;-48
2022/12/10 05:33:54;;;;;;;16.75;11.20;;;1.60;99.90;;;;;;4948757;28;20036;-45
2022/12/10 05:36:25;;;;;;;18.00;11.88;;;1.50;99.90;;;;;;4934780;29;20032;-48
2022/12/10 05:38:53;;;;;;;21.52;12.52;;;1.50;99.90;;;;;;4934605;29;20027;-46
2022/12/10 05:41:21;;;;;;;18.42;12.23;;;1.50;99.90;;;;;;4933432;29;20444;-46
2022/12/10 05:43:47;;;;;;;16.60;11.75;;;1.50;99.90;;;;;;4933455;29;20051;-45
2022/12/10 05:46:19;;;;;;;18.20;11.18;;;1.50;99.90;;;;;;4934396;29;20028;-47
2022/12/10 05:48:45;;;;;;;16.27;11.20;;;1.40;99.90;;;;;;4934463;29;20024;-45
2022/12/10 05:51:14;;;;;;;16.15;11.10;;;1.50;99.90;;;;;;4948983;29;20448;-47
2022/12/10 05:53:41;;;;;;;19.05;11.27;;;1.40;99.90;;;;;;4933438;29;20465;-47
2022/12/10 05:56:10;;;;;;;19.38;11.43;;;1.40;99.90;;;;;;5002616;23;20046;-52
2022/12/10 05:58:36;;;;;;;17.70;12.10;;;1.40;99.90;;;;;;5006953;28;20029;-50
2022/12/10 06:01:07;;;;;;;16.17;11.68;;;1.40;99.90;;;;;;4992075;28;20413;-50
2022/12/10 06:03:33;;;;;;;14.70;10.20;;;1.40;99.90;;;;;;4991138;28;20101;-51
2022/12/10 06:05:58;;;;;;;20.00;11.23;;;1.40;99.90;;;;;;4991898;28;20033;-49
2022/12/10 06:08:24;;;;;;;16.67;11.27;;;1.40;99.90;;;;;;4991859;28;20081;-51
2022/12/10 06:10:49;;;;;;;15.80;11.32;;;1.40;99.90;;;;;;4992014;28;20034;-47
2022/12/10 06:13:15;;;;;;;17.23;12.15;;;1.40;99.90;;;;;;4989986;28;20437;-50
2022/12/10 06:15:42;;;;;;;15.88;11.25;;;1.30;99.90;;;;;;4991814;28;20393;-52
2022/12/10 06:18:08;;;;;;;16.75;12.05;;;1.20;99.90;;;;;;4991806;28;20106;-51
2022/12/10 06:20:36;;;;;;;17.08;11.43;;;1.20;99.90;;;;;;4991942;28;20026;-53
2022/12/10 06:23:02;;;;;;;16.25;10.82;;;1.10;99.90;;;;;;4990918;28;20026;-45
2022/12/10 06:25:28;;;;;;;17.95;12.05;;;1.10;99.90;;;;;;4992007;28;20022;-51
2022/12/10 06:27:53;;;;;;;17.90;12.40;;;1.00;99.90;;;;;;5006764;28;20380;-48
2022/12/10 06:30:19;;;;;;;17.17;11.13;;;1.00;99.90;;;;;;4991985;28;20506;-49
2022/12/10 06:32:44;;;;;;;16.85;11.45;;;1.00;99.90;;;;;;4991254;28;20022;-52
2022/12/10 06:35:10;;;;;;;15.90;11.93;;;0.90;99.90;;;;;;4991709;28;20022;-53
2022/12/10 06:37:36;;;;;;;18.63;12.95;;;0.90;99.90;;;;;;4991625;28;20045;-52
2022/12/10 06:40:03;;;;;;;18.92;12.20;;;0.90;99.90;;;;;;4991987;28;20482;-49
2022/12/10 06:42:28;;;;;;;17.35;11.63;;;0.80;99.90;;;;;;4990794;28;20027;-52
2022/12/10 06:44:54;;;;;;;17.02;12.18;;;0.80;99.90;;;;;;4991836;28;20029;-52
2022/12/10 06:47:19;;;;;;;16.65;11.70;;;0.80;99.90;;;;;;4991625;28;20030;-51
2022/12/10 06:49:45;;;;;;;18.85;11.82;;;0.80;99.90;;;;;;4991790;28;20058;-54
2022/12/10 06:52:10;;;;;;;17.17;12.15;;;0.80;99.90;;;;;;4991654;28;20352;-50
2022/12/10 06:54:36;;;;;;;14.93;11.15;;;0.70;99.90;;;;;;4995213;28;20037;-44
2022/12/10 06:57:01;;;;;;;17.95;11.93;;;0.70;99.90;;;;;;4995130;28;20103;-49
2022/12/10 06:59:27;;;;;;;16.23;10.40;;;0.70;99.90;;;;;;4995082;28;20054;-50
2022/12/10 07:01:53;;;;;;;17.92;11.98;;;0.70;99.90;;;;;;4994800;28;20022;-49
2022/12/10 07:04:18;;;;;;;14.85;11.32;;;0.70;99.90;;;;;;4994952;28;20048;-50
2022/12/10 07:06:44;;;;;;;17.80;12.55;;;0.70;99.90;;;;;;5009987;28;20058;-48
2022/12/10 07:09:09;;;;;;;16.92;11.38;;;0.70;99.90;;;;;;4993784;28;20030;-50
2022/12/10 07:11:35;;;;;;;21.20;13.05;;;0.60;99.90;;;;;;4995242;28;20558;-52
2022/12/10 07:14:01;;;;;;;19.50;11.55;;;0.60;99.90;;;;;;4993304;28;20033;-50
2022/12/10 07:16:29;;;;;;;15.98;11.50;;;0.60;99.90;;;;;;4995453;28;20030;-50
2022/12/10 07:18:58;;;;;;;19.42;12.10;;;0.70;99.90;;;;;;4994919;28;20022;-49
2022/12/10 07:21:27;;;;;;;17.25;11.95;;;0.70;99.90;;;;;;4994878;28;20093;-54
2022/12/10 07:23:55;;;;;;;19.70;11.90;;;0.70;99.90;;;;;;4994089;28;20078;-47
2022/12/10 07:26:21;;;;;;;20.20;12.60;;;0.70;99.90;;;;;;4994850;28;20149;-51
2022/12/10 07:28:47;;;;;;;16.90;11.25;;;0.70;99.90;;;;;;4993330;28;20113;-47
2022/12/10 07:31:13;;;;;;;16.80;11.27;;;0.70;99.90;;;;;;4993497;28;20022;-50
2022/12/10 07:33:39;;;;;;;15.35;11.43;;;0.80;99.90;;;;;;5008898;28;20030;-52
2022/12/10 07:36:07;;;;;;;14.80;11.68;;;0.80;99.90;;;;;;5009570;28;20402;-55
2022/12/10 07:38:32;;;;;;;16.77;11.10;;;0.90;99.90;;;;;;4994559;28;20018;-56
2022/12/10 07:41:01;;;;;;;17.40;11.50;;;0.90;99.90;;;;;;4993450;28;20056;-50
2022/12/10 07:43:27;;;;;;;20.20;11.85;;;1.00;99.90;;;;;;4993649;28;20037;-55
2022/12/10 07:45:52;;;;;;;15.35;10.70;;;1.10;99.90;;;;;;4994677;28;20487;-53
2022/12/10 07:48:18;;;;;;;15.82;11.38;;;1.20;99.90;;;;;;4994407;28;20038;-53
2022/12/10 07:50:43;;;;;;;17.83;12.02;;;1.20;99.90;;;;;;4994453;28;20025;-45
2022/12/10 07:53:09;;;;;;;15.82;11.15;;;1.30;99.90;;;;;;4993864;28;20034;-54
2022/12/10 07:55:34;;;;;;;18.80;11.45;;;1.40;99.90;;;;;;4994487;28;20043;-50
2022/12/10 07:58:00;;;;;;;15.93;11.35;;;1.40;99.90;;;;;;5009820;28;20030;-49
2022/12/10 08:00:25;;;;;;;15.73;11.50;;;1.50;99.90;;;;;;4994789;28;20141;-57
2022/12/10 08:02:51;;;;;;;16.92;12.18;;;1.60;99.90;;;;;;4993623;28;20406;-47
2022/12/10 08:05:16;;;;;;;14.80;11.35;;;1.70;99.90;;;;;;4993231;28;20618;-50
2022/12/10 08:07:42;;;;;;;17.50;12.07;;;1.80;99.90;;;;;;4994146;28;20069;-55
2022/12/10 08:10:07;;;;;;;14.90;11.85;;;1.90;99.90;;;;;;4993844;28;20109;-51
2022/12/10 08:12:33;;;;;;;19.55;12.98;;;1.80;99.90;;;;;;4992217;28;20030;-45
2022/12/10 08:14:58;;;;;;;18.15;12.70;;;1.60;99.90;;;;;;4993709;28;20045;-51
2022/12/10 08:17:24;;;;;;;17.80;11.43;;;1.60;99.90;;;;;;4993962;28;20057;-54
2022/12/10 08:19:50;;;;;;;22.75;13.55;;;1.60;99.90;;;;;;5008889;28;20034;-46
2022/12/10 08:22:16;;;;;;;20.52;12.55;;;1.50;99.90;;;;;;4993054;28;20112;-50
2022/12/10 08:24:41;;;;;;;20.70;13.35;;;1.50;99.90;;;;;;4993574;28;20054;-52
2022/12/10 08:27:07;;;;;;;17.77;12.45;;;1.50;99.90;;;;;;4993710;28;20026;-55
2022/12/10 08:29:32;;;;;;;20.75;12.98;;;1.50;99.90;;;;;;4993534;28;20085;-52
2022/12/10 08:31:58;;;;;;;18.95;12.25;;;1.60;99.90;;;;;;4992772;28;20487;-49
2022/12/10 08:34:23;;;;;;;18.90;13.00;;;1.60;99.90;;;;;;5008442;28;20034;-53
2022/12/10 08:36:49;;;;;;;23.17;13.00;;;1.60;99.90;;;;;;4993341;28;20034;-53
2022/12/10 08:39:16;;;;;;;19.52;13.10;;;1.60;99.90;;;;;;4993416;28;20026;-53
2022/12/10 08:41:45;;;;;;;22.45;14.70;;;1.60;99.90;;;;;;4993525;28;20101;-54
2022/12/10 08:44:11;;;;;;;19.45;12.70;;;1.70;99.90;;;;;;4992865;28;20023;-49
2022/12/10 08:46:37;;;;;;;22.92;13.13;;;1.70;99.90;;;;;;4993455;28;20018;-50
2022/12/10 08:49:04;;;;;;;17.55;12.07;;;1.70;99.90;;;;;;4993263;28;20109;-46
2022/12/10 08:51:29;;;;;;;18.42;12.98;;;1.80;99.90;;;;;;5008387;28;20041;-54
2022/12/10 08:53:55;;;;;;;20.63;13.82;;;1.80;99.90;;;;;;4992356;28;20113;-52
2022/12/10 08:56:20;;;;;;;22.33;14.77;;;1.80;99.90;;;;;;4992950;28;20059;-52
2022/12/10 08:58:46;;;;;;;22.27;15.18;;;1.80;99.90;;;;;;4991840;28;20088;-51
2022/12/10 09:01:15;;;;;;;18.63;13.05;;;1.90;99.90;;;;;;4993356;28;20672;-49
2022/12/10 09:03:40;;;;;;;18.23;12.95;;;1.80;99.90;;;;;;4991881;28;20478;-52
2022/12/10 09:06:09;;;;;;;21.98;14.82;;;1.90;99.90;;;;;;4993063;28;20041;-55
2022/12/10 09:08:35;;;;;;;18.52;12.40;;;1.90;99.90;;;;;;4993622;28;20549;-50
2022/12/10 09:11:17;;;;;;;21.77;14.38;;;1.90;99.90;;;;;;4993555;28;20033;-49
2022/12/10 09:13:42;;;;;;;20.23;13.02;;;1.90;99.90;;;;;;4993078;28;20026;-46
2022/12/10 09:16:08;;;;;;;20.70;14.55;;;2.00;99.90;;;;;;4994031;28;20037;-52
2022/12/10 09:18:34;;;;;;;18.92;12.90;;;2.10;99.90;;;;;;4993289;28;20046;-54
2022/12/10 09:20:59;;;;;;;22.63;14.68;;;2.10;99.90;;;;;;4993284;28;20027;-53
2022/12/10 09:23:25;;;;;;;20.30;13.20;;;2.10;99.90;;;;;;4992363;28;20446;-53
2022/12/10 09:25:50;;;;;;;21.80;14.13;;;2.20;99.90;;;;;;4992997;28;20033;-51
2022/12/10 09:28:16;;;;;;;18.38;12.65;;;2.20;99.90;;;;;;4992900;28;20039;-54
2022/12/10 09:30:42;;;;;;;18.27;12.07;;;2.10;99.90;;;;;;4992875;28;20497;-52
2022/12/10 09:33:07;;;;;;;20.80;12.30;;;2.00;99.90;;;;;;4990877;28;20038;-51
2022/12/10 09:35:33;;;;;;;19.80;13.52;;;2.10;99.90;;;;;;4992633;28;20031;-52
2022/12/10 09:37:58;;;;;;;17.27;12.55;;;2.20;99.90;;;;;;4991313;28;20124;-56
2022/12/10 09:40:50;;;;;;;14.68;11.15;;;2.30;99.90;;;;;;4992814;28;20041;-49
2022/12/10 09:43:41;;;;;;;18.27;11.85;;;2.40;99.90;;;;;;4990952;28;20498;-50
2022/12/10 09:46:45;;;;;;;20.77;13.23;;;2.50;99.90;;;;;;4992671;28;20592;-52
2022/12/10 09:49:48;;;;;;;17.60;12.55;;;2.70;99.90;;;;;;4992790;28;20030;-50
2022/12/10 09:52:17;;;;;;;18.65;12.50;;;3.00;99.90;;;;;;4991824;28;20022;-53
2022/12/10 09:54:49;;;;;;;18.27;12.48;;;3.20;99.90;;;;;;4992205;28;20023;-53
2022/12/10 09:57:31;;;;;;;19.75;11.27;;;3.40;99.90;;;;;;4992397;28;20031;-55
2022/12/10 10:00:01;;;;;;;19.60;13.05;;;3.70;99.90;;;;;;4992574;28;20114;-52
2022/12/10 10:02:30;;;;;;;17.88;13.32;;;3.90;99.90;;;;;;4991550;28;20026;-52
2022/12/10 10:05:22;;;;;;;17.38;12.82;;;4.00;99.90;;;;;;4991537;28;20076;-52
2022/12/10 10:07:52;;;;;;;17.00;12.57;;;4.10;99.90;;;;;;4992407;28;20023;-49
2022/12/10 10:10:34;;;;;;;18.83;12.45;;;4.20;99.90;;;;;;4992168;28;20058;-52
2022/12/10 10:13:08;;;;;;;17.05;12.98;;;4.10;99.90;;;;;;4989798;28;20034;-50
2022/12/10 10:15:43;;;;;;;18.67;12.90;;;3.90;99.90;;;;;;4991909;28;20030;-56
2022/12/10 10:18:36;;;;;;;26.92;14.35;;;3.70;99.90;;;;;;4991892;28;20406;-47
2022/12/10 10:21:20;;;;;;;19.20;13.43;;;3.70;99.90;;;;;;5007062;28;20041;-54
2022/12/10 10:23:46;;;;;;;23.90;14.32;;;3.60;99.90;;;;;;5006372;28;20038;-49
2022/12/10 10:26:12;;;;;;;18.13;13.27;;;3.70;99.90;;;;;;4992041;28;20514;-45
2022/12/10 10:28:40;;;;;;;20.50;13.50;;;3.60;99.90;;;;;;5010184;28;20034;-52
2022/12/10 10:31:18;;;;;;;22.05;13.13;;;3.60;99.90;;;;;;4996013;28;20022;-53
2022/12/10 10:33:59;;;;;;;16.98;12.52;;;3.60;99.90;;;;;;4995185;28;20026;-55
2022/12/10 10:36:28;;;;;;;16.42;11.52;;;3.60;99.90;;;;;;4995492;28;20089;-55
2022/12/10 10:38:54;;;;;;;19.63;14.40;;;3.70;99.90;;;;;;5010744;28;20023;-46
2022/12/10 10:41:20;;;;;;;16.83;12.07;;;3.50;99.90;;;;;;4995634;28;20018;-53
2022/12/10 10:43:47;;;;;;;16.45;11.68;;;3.40;99.90;;;;;;4994965;28;20168;-55
2022/12/10 10:46:20;;;;;;;16.83;11.95;;;3.40;99.90;;;;;;4995522;28;20442;-53
2022/12/10 10:48:46;;;;;;;17.42;11.90;;;3.40;99.90;;;;;;4995498;28;20030;-51
2022/12/10 10:51:19;;;;;;;16.85;12.18;;;3.40;99.90;;;;;;4995194;28;20029;-51
2022/12/10 10:53:49;;;;;;;18.90;13.18;;;3.40;99.90;;;;;;4994721;28;20426;-51
2022/12/10 10:56:22;;;;;;;19.85;12.07;;;3.30;99.90;;;;;;4995067;28;20066;-51
2022/12/10 10:59:03;;;;;;;18.42;12.65;;;3.40;99.90;;;;;;4995460;28;20030;-55
2022/12/10 11:01:50;;;;;;;16.48;11.00;;;3.40;99.90;;;;;;4995387;28;20030;-55
2022/12/10 11:04:21;;;;;;;16.30;11.57;;;3.50;99.90;;;;;;4994682;28;20084;-51
2022/12/10 11:06:56;;;;;;;17.25;12.55;;;3.40;99.90;;;;;;4995160;28;20026;-56
2022/12/10 11:09:27;;;;;;;16.02;11.40;;;3.30;99.90;;;;;;4995286;28;20019;-51
2022/12/10 11:11:59;;;;;;;15.82;11.02;;;3.30;99.90;;;;;;4994936;28;20505;-51
2022/12/10 11:14:43;;;;;;;15.25;11.02;;;3.30;99.90;;;;;;4994046;28;20031;-58
2022/12/10 11:17:19;;;;;;;15.18;10.10;;;3.30;99.90;;;;;;4989701;28;20037;-53
2022/12/10 11:19:55;;;;;;;13.05;9.93;;;3.30;99.90;;;;;;4995713;28;20030;-53
2022/12/10 11:22:32;;;;;;;14.90;10.10;;;3.40;99.90;;;;;;4994440;28;20081;-54
2022/12/10 11:25:00;;;;;;;15.82;10.77;;;3.50;99.90;;;;;;5009890;28;20026;-51
2022/12/10 11:27:54;;;;;;;15.82;11.65;;;3.60;99.90;;;;;;4993435;28;20529;-52
2022/12/10 11:30:23;;;;;;;12.85;9.63;;;3.60;99.90;;;;;;4994381;28;20035;-43
2022/12/10 11:33:10;;;;;;;14.95;10.10;;;3.70;99.90;;;;;;4993947;28;20414;-46
2022/12/10 11:35:58;;;;;;;15.30;10.13;;;3.70;99.90;;;;;;4994548;28;20027;-48
2022/12/10 11:38:29;;;;;;;127.47;71.93;;;3.70;99.90;;;;;;4992314;28;20070;-49
2022/12/10 11:40:57;;;;;;;19.40;14.52;;;3.80;99.90;;;;;;4993369;28;20022;-46
2022/12/10 11:43:56;;;;;;;104.30;52.08;;;3.70;99.90;;;;;;4993716;28;20066;-51
2022/12/10 11:46:58;;;;;;;19.20;12.73;;;3.80;99.90;;;;;;5007634;28;20558;-50
2022/12/10 11:49:41;;;;;;;13.70;10.18;;;3.90;99.90;;;;;;4994876;28;20403;-51
2022/12/10 11:52:25;;;;;;;13.63;9.10;;;4.00;99.90;;;;;;4993628;28;20027;-47
2022/12/10 11:57:24;;;;;;;15.82;10.70;;;4.00;99.90;;;;;;4968566;28;20042;-42
2022/12/10 12:00:17;;;;;;;15.63;10.55;;;3.90;99.90;;;;;;4975098;28;20073;-45
2022/12/10 12:03:03;;;;;;;13.98;10.73;;;3.90;99.90;;;;;;4973968;28;20065;-45
2022/12/10 12:05:50;;;;;;;15.07;10.98;;;4.00;99.90;;;;;;4973837;28;20027;-43
2022/12/10 12:08:36;;;;;;;13.20;9.93;;;4.00;99.90;;;;;;4974737;28;20023;-56
2022/12/10 12:11:26;;;;;;;13.07;9.88;;;3.90;99.90;;;;;;4974697;28;20455;-49
2022/12/10 12:14:06;;;;;;;15.30;9.77;;;4.00;99.90;;;;;;4988909;28;20494;-44
2022/12/10 12:16:47;;;;;;;13.98;9.75;;;4.00;99.90;;;;;;4974731;28;20043;-43
2022/12/10 12:19:31;;;;;;;12.68;10.15;;;4.00;99.90;;;;;;4974921;28;20038;-45
2022/12/10 12:22:01;;;;;;;11.70;9.35;;;4.10;99.90;;;;;;4973642;28;20558;-45
2022/12/10 12:24:37;;;;;;;14.35;9.30;;;4.10;99.90;;;;;;4974471;28;20030;-43
2022/12/10 12:27:24;;;;;;;14.88;10.43;;;4.10;99.90;;;;;;4973593;28;20031;-47
2022/12/10 12:30:05;;;;;;;12.27;9.30;;;4.00;99.90;;;;;;4974723;28;20491;-44
2022/12/10 12:32:40;;;;;;;14.20;9.32;;;3.90;99.90;;;;;;4973599;28;20042;-47
2022/12/10 12:35:11;;;;;;;;;;;3.80;99.90;;;;;;4974832;28;20027;-43
2022/12/10 12:38:06;;;;;;;12.57;8.88;;;3.80;99.90;;;;;;4989170;28;19957;-45
2022/12/10 12:40:52;;;;;;;12.88;9.30;;;3.70;99.90;;;;;;4974355;28;20026;-44
2022/12/10 12:43:28;;;;;;;11.80;9.02;;;3.70;99.90;;;;;;4988359;28;20023;-42
2022/12/10 12:45:55;;;;;;;12.57;9.80;;;3.70;99.90;;;;;;4973044;28;20030;-39
2022/12/10 12:48:34;;;;;;;12.50;9.30;;;3.60;99.90;;;;;;4973769;28;20023;-46
2022/12/10 12:51:25;;;;;;;12.10;9.48;;;3.60;99.90;;;;;;4973692;28;20029;-44
2022/12/10 12:53:51;;;;;;;11.57;8.48;;;3.70;99.90;;;;;;4972393;28;20129;-42
2022/12/10 12:56:41;;;;;;;10.98;8.30;;;3.70;99.90;;;;;;4973650;28;20479;-43
2022/12/10 12:59:38;;;;;;;11.95;8.32;;;3.60;99.90;;;;;;4973461;28;20031;-44
2022/12/10 13:02:53;;;;;;;13.52;9.05;;;3.60;99.90;;;;;;4972713;28;20511;-43
2022/12/10 13:05:29;;;;;;;17.85;8.65;;;3.60;99.90;;;;;;4972385;28;20030;-46
2022/12/10 13:08:17;;;;;;;12.25;9.48;;;3.60;99.90;;;;;;4975781;28;20078;-45